createdAt,value
2019-05-03T00:02:49.067Z,8.90
2019-05-03T00:05:42.843Z,8.90
2019-05-03T00:08:16.245Z,8.80
2019-05-03T00:10:49.124Z,8.80
2019-05-03T00:13:21.932Z,8.80
2019-05-03T00:16:12.243Z,8.70
2019-05-03T00:18:45.594Z,8.70
2019-05-03T00:21:18.295Z,8.70
2019-05-03T00:23:52.172Z,8.60
2019-05-03T00:26:24.534Z,8.60
2019-05-03T00:28:57.426Z,8.50
2019-05-03T00:31:31.782Z,8.50
2019-05-03T00:34:08.436Z,8.40
2019-05-03T00:36:46.134Z,8.40
2019-05-03T00:39:41.850Z,8.40
2019-05-03T00:42:14.626Z,8.40
2019-05-03T00:44:47.506Z,8.30
2019-05-03T00:47:22.028Z,8.30
2019-05-03T00:49:54.488Z,8.30
2019-05-03T00:52:26.874Z,8.30
2019-05-03T00:55:02.039Z,8.30
2019-05-03T00:57:33.794Z,8.20
2019-05-03T01:00:06.871Z,8.20
2019-05-03T01:02:42.296Z,8.20
2019-05-03T01:05:15.295Z,8.20
2019-05-03T01:07:47.858Z,8.20
2019-05-03T01:10:20.022Z,8.20
2019-05-03T01:12:56.338Z,8.20
2019-05-03T01:15:54.514Z,8.20
2019-05-03T01:18:32.916Z,8.10
2019-05-03T01:21:06.107Z,8.10
2019-05-03T01:23:41.950Z,8.10
2019-05-03T01:26:22.717Z,8.00
2019-05-03T01:28:58.433Z,8.00
2019-05-03T01:31:31.929Z,7.90
2019-05-03T01:34:05.679Z,7.90
2019-05-03T01:36:38.566Z,7.90
2019-05-03T01:39:12.747Z,7.80
2019-05-03T01:41:45.157Z,7.80
2019-05-03T01:44:17.608Z,7.90
2019-05-03T01:46:51.602Z,7.90
2019-05-03T01:49:31.994Z,7.90
2019-05-03T01:52:12.772Z,7.90
2019-05-03T01:54:45.148Z,7.90
2019-05-03T01:57:17.821Z,7.80
2019-05-03T01:59:51.957Z,7.80
2019-05-03T02:02:32.476Z,7.80
2019-05-03T02:05:20.298Z,7.70
2019-05-03T02:07:53.425Z,7.70
2019-05-03T02:10:25.759Z,7.70
2019-05-03T02:12:58.604Z,7.70
2019-05-03T02:15:32.679Z,7.60
2019-05-03T02:18:06.803Z,7.60
2019-05-03T02:20:41.709Z,7.60
2019-05-03T02:23:13.898Z,7.60
2019-05-03T02:25:58.930Z,7.60
2019-05-03T02:28:29.386Z,7.60
2019-05-03T02:31:03.478Z,7.50
2019-05-03T02:33:36.398Z,7.60
2019-05-03T02:36:08.937Z,7.50
2019-05-03T02:38:42.951Z,7.50
2019-05-03T02:41:15.321Z,7.50
2019-05-03T02:43:50.704Z,7.50
2019-05-03T02:46:45.427Z,7.50
2019-05-03T02:49:45.329Z,7.50
2019-05-03T02:52:37.173Z,7.50
2019-05-03T02:55:15.709Z,7.50
2019-05-03T02:57:47.216Z,7.60
2019-05-03T03:00:21.635Z,7.50
2019-05-03T03:02:55.737Z,7.50
2019-05-03T03:05:29.349Z,7.50
2019-05-03T03:08:05.732Z,7.50
2019-05-03T03:10:37.179Z,7.50
2019-05-03T03:13:11.163Z,7.50
2019-05-03T03:15:46.107Z,7.50
2019-05-03T03:18:21.555Z,7.50
2019-05-03T03:20:58.026Z,7.50
2019-05-03T03:23:35.315Z,7.50
2019-05-03T03:26:08.222Z,7.50
2019-05-03T03:28:42.307Z,7.50
2019-05-03T03:31:37.463Z,7.50
2019-05-03T03:34:09.070Z,7.50
2019-05-03T03:36:59.444Z,7.50
2019-05-03T03:39:26.054Z,7.40
2019-05-03T03:41:59.171Z,7.40
2019-05-03T03:44:32.696Z,7.40
2019-05-03T03:47:05.836Z,7.40
2019-05-03T03:49:40.004Z,7.40
2019-05-03T03:52:15.997Z,7.30
2019-05-03T03:54:50.072Z,7.30
2019-05-03T03:57:25.271Z,7.30
2019-05-03T03:59:58.308Z,7.30
2019-05-03T04:02:30.829Z,7.30
2019-05-03T04:05:05.576Z,7.30
2019-05-03T04:07:38.684Z,7.30
2019-05-03T04:10:11.801Z,7.20
2019-05-03T04:12:45.814Z,7.20
2019-05-03T04:15:37.370Z,7.20
2019-05-03T04:18:29.647Z,7.20
2019-05-03T04:21:02.188Z,7.20
2019-05-03T04:23:35.887Z,7.20
2019-05-03T04:26:09.266Z,7.20
2019-05-03T04:28:45.246Z,7.20
2019-05-03T04:31:16.159Z,7.20
2019-05-03T04:33:48.647Z,7.20
2019-05-03T04:36:21.195Z,7.20
2019-05-03T04:38:56.059Z,7.20
2019-05-03T04:41:27.560Z,7.20
2019-05-03T04:44:00.223Z,7.20
2019-05-03T04:46:35.670Z,7.20
2019-05-03T04:49:07.743Z,7.30
2019-05-03T04:51:40.001Z,7.30
2019-05-03T04:54:40.036Z,7.40
2019-05-03T04:57:15.822Z,7.50
2019-05-03T04:59:47.472Z,7.50
2019-05-03T05:02:21.168Z,7.50
2019-05-03T05:04:55.540Z,7.40
2019-05-03T05:07:28.344Z,7.30
2019-05-03T05:10:01.230Z,7.30
2019-05-03T05:12:35.582Z,7.30
2019-05-03T05:15:08.638Z,7.20
2019-05-03T05:17:50.335Z,7.20
2019-05-03T05:20:46.038Z,7.10
2019-05-03T05:23:22.243Z,7.10
2019-05-03T05:26:01.553Z,7.00
2019-05-03T05:28:51.024Z,7.00
2019-05-03T05:31:25.380Z,7.00
2019-05-03T05:33:58.182Z,7.10
2019-05-03T05:36:31.011Z,7.10
2019-05-03T05:39:05.227Z,7.10
2019-05-03T05:41:37.876Z,7.00
2019-05-03T05:44:10.592Z,7.00
2019-05-03T05:47:01.183Z,7.00
2019-05-03T05:49:44.348Z,7.10
2019-05-03T05:52:17.066Z,7.10
2019-05-03T05:54:55.359Z,7.00
2019-05-03T05:57:47.430Z,7.00
2019-05-03T06:00:26.579Z,6.90
2019-05-03T06:02:59.213Z,6.80
2019-05-03T06:05:32.131Z,6.80
2019-05-03T06:08:21.974Z,6.80
2019-05-03T06:11:22.539Z,6.80
2019-05-03T06:14:07.108Z,6.80
2019-05-03T06:17:14.640Z,6.80
2019-05-03T06:20:07.659Z,6.80
2019-05-03T06:22:47.023Z,6.80
2019-05-03T06:25:37.872Z,6.70
2019-05-03T06:28:25.060Z,6.70
2019-05-03T06:31:09.787Z,6.70
2019-05-03T06:33:42.547Z,6.70
2019-05-03T06:36:15.394Z,6.70
2019-05-03T06:38:48.134Z,6.70
2019-05-03T06:41:20.598Z,6.70
2019-05-03T06:43:55.090Z,6.70
2019-05-03T06:46:46.171Z,6.70
2019-05-03T06:49:19.027Z,6.80
2019-05-03T06:51:51.419Z,6.70
2019-05-03T06:54:26.904Z,6.70
2019-05-03T06:57:00.155Z,6.80
2019-05-03T06:59:45.050Z,6.70
2019-05-03T07:02:35.633Z,6.70
2019-05-03T07:05:11.454Z,6.70
2019-05-03T07:08:11.681Z,6.70
2019-05-03T07:10:48.673Z,6.70
2019-05-03T07:13:21.512Z,6.70
2019-05-03T07:15:55.903Z,6.60
2019-05-03T07:18:28.029Z,6.60
2019-05-03T07:21:01.131Z,6.60
2019-05-03T07:23:35.027Z,6.60
2019-05-03T07:26:07.919Z,6.60
2019-05-03T07:28:47.024Z,6.60
2019-05-03T07:31:15.237Z,6.70
2019-05-03T07:33:48.584Z,6.70
2019-05-03T07:36:21.135Z,6.70
2019-05-03T07:38:55.552Z,6.70
2019-05-03T07:41:29.011Z,6.70
2019-05-03T07:44:01.895Z,6.70
2019-05-03T07:46:35.190Z,6.70
2019-05-03T07:49:08.483Z,6.70
2019-05-03T07:51:40.996Z,6.70
2019-05-03T07:54:15.518Z,6.70
2019-05-03T07:56:54.905Z,6.70
2019-05-03T07:59:27.695Z,6.80
2019-05-03T08:02:00.589Z,6.80
2019-05-03T08:04:33.187Z,6.80
2019-05-03T08:07:19.319Z,6.70
2019-05-03T08:09:40.228Z,6.70
2019-05-03T08:12:12.843Z,6.70
2019-05-03T08:14:45.230Z,6.70
2019-05-03T08:17:18.000Z,6.70
2019-05-03T08:19:50.678Z,6.70
2019-05-03T08:22:25.503Z,6.80
2019-05-03T08:24:59.624Z,6.80
2019-05-03T08:27:32.413Z,6.80
2019-05-03T08:30:06.456Z,6.80
2019-05-03T08:33:00.296Z,6.90
2019-05-03T08:35:36.253Z,6.80
2019-05-03T08:38:09.352Z,6.80
2019-05-03T08:40:46.844Z,6.80
2019-05-03T08:43:20.223Z,6.70
2019-05-03T08:45:52.902Z,6.70
2019-05-03T08:48:25.606Z,6.70
2019-05-03T08:50:58.553Z,6.60
2019-05-03T08:53:30.868Z,6.60
2019-05-03T08:56:05.303Z,6.60
2019-05-03T08:58:38.659Z,6.70
2019-05-03T09:01:11.811Z,6.60
2019-05-03T09:03:45.736Z,6.60
2019-05-03T09:06:18.963Z,6.70
2019-05-03T09:08:54.970Z,6.80
2019-05-03T09:11:34.040Z,6.90
2019-05-03T09:14:04.598Z,7.00
2019-05-03T09:16:37.568Z,6.90
2019-05-03T09:19:10.235Z,6.80
2019-05-03T09:21:45.277Z,6.80
2019-05-03T09:24:18.059Z,6.70
2019-05-03T09:26:50.797Z,6.70
2019-05-03T09:29:25.366Z,6.60
2019-05-03T09:31:57.841Z,6.60
2019-05-03T09:34:30.449Z,6.60
2019-05-03T09:37:04.762Z,6.60
2019-05-03T09:39:37.975Z,6.60
2019-05-03T09:42:11.007Z,6.60
2019-05-03T09:44:45.038Z,6.60
2019-05-03T09:47:17.799Z,6.60
2019-05-03T09:49:50.328Z,6.60
2019-05-03T09:52:25.021Z,6.50
2019-05-03T09:54:58.958Z,6.50
2019-05-03T09:57:32.065Z,6.60
2019-05-03T10:00:04.933Z,6.60
2019-05-03T10:02:38.348Z,6.60
2019-05-03T10:05:11.637Z,6.70
2019-05-03T10:07:45.598Z,6.70
2019-05-03T10:10:19.263Z,6.70
2019-05-03T10:12:51.663Z,6.70
2019-05-03T10:15:42.262Z,6.70
2019-05-03T10:18:17.076Z,6.70
2019-05-03T10:20:49.467Z,6.70
2019-05-03T10:23:40.782Z,6.80
2019-05-03T10:26:14.973Z,6.80
2019-05-03T10:28:48.158Z,6.80
2019-05-03T10:31:22.395Z,6.80
2019-05-03T10:34:05.741Z,6.80
2019-05-03T10:36:39.439Z,6.80
2019-05-03T10:39:11.928Z,6.90
2019-05-03T10:41:45.347Z,6.90
2019-05-03T10:44:18.305Z,6.90
2019-05-03T10:46:50.884Z,6.90
2019-05-03T10:49:24.518Z,7.00
2019-05-03T10:52:02.239Z,7.00
2019-05-03T10:54:35.857Z,7.00
2019-05-03T10:57:19.175Z,7.00
2019-05-03T10:59:52.901Z,7.00
2019-05-03T11:02:42.907Z,7.10
2019-05-03T11:05:15.950Z,7.10
2019-05-03T11:07:48.858Z,7.10
2019-05-03T11:10:22.308Z,7.20
2019-05-03T11:12:54.876Z,7.10
2019-05-03T11:15:28.130Z,7.10
2019-05-03T11:18:00.928Z,7.10
2019-05-03T11:20:39.130Z,7.10
2019-05-03T11:23:14.603Z,7.10
2019-05-03T11:25:47.499Z,7.10
2019-05-03T11:28:26.418Z,7.10
2019-05-03T11:31:02.415Z,7.10
2019-05-03T11:33:42.357Z,7.10
2019-05-03T11:36:34.898Z,7.10
2019-05-03T11:39:08.852Z,7.10
2019-05-03T11:41:45.117Z,7.10
2019-05-03T11:44:36.334Z,7.10
2019-05-03T11:47:09.436Z,7.10
2019-05-03T11:49:42.683Z,7.10
2019-05-03T11:52:16.044Z,7.20
2019-05-03T11:54:49.543Z,7.20
2019-05-03T11:57:27.581Z,7.20
2019-05-03T12:00:00.807Z,7.20
2019-05-03T12:02:51.199Z,7.30
2019-05-03T12:05:25.848Z,7.30
2019-05-03T12:07:58.215Z,7.30
2019-05-03T12:10:47.024Z,7.30
2019-05-03T12:13:12.355Z,7.30
2019-05-03T12:15:45.190Z,7.30
2019-05-03T12:18:18.832Z,7.30
2019-05-03T12:20:53.945Z,7.30
2019-05-03T12:23:28.512Z,7.30
2019-05-03T12:26:02.049Z,7.30
2019-05-03T12:28:35.717Z,7.30
2019-05-03T12:31:24.246Z,7.30
2019-05-03T12:33:45.776Z,7.30
2019-05-03T12:36:17.851Z,7.30
2019-05-03T12:38:50.414Z,7.40
2019-05-03T12:41:22.880Z,7.30
2019-05-03T12:43:55.972Z,7.40
2019-05-03T12:46:28.570Z,7.40
2019-05-03T12:49:01.619Z,7.40
2019-05-03T12:51:34.846Z,7.30
2019-05-03T12:54:07.019Z,7.30
2019-05-03T12:56:39.695Z,7.30
2019-05-03T12:59:45.063Z,7.30
2019-05-03T13:02:38.943Z,7.40
2019-05-03T13:05:11.624Z,7.40
2019-05-03T13:07:51.551Z,7.40
2019-05-03T13:10:26.484Z,7.40
2019-05-03T13:12:58.032Z,7.40
2019-05-03T13:15:30.316Z,7.50
2019-05-03T13:18:04.845Z,7.50
2019-05-03T13:20:37.372Z,7.50
2019-05-03T13:23:12.807Z,7.70
2019-05-03T13:25:44.852Z,7.60
2019-05-03T13:28:18.021Z,7.70
2019-05-03T13:30:50.366Z,7.80
2019-05-03T13:33:23.023Z,8.00
2019-05-03T13:35:55.839Z,8.00
2019-05-03T13:38:29.032Z,8.00
2019-05-03T13:41:02.511Z,8.10
2019-05-03T13:43:35.467Z,8.00
2019-05-03T13:46:08.407Z,8.00
2019-05-03T13:48:46.041Z,8.00
2019-05-03T13:51:14.848Z,8.00
2019-05-03T13:53:47.463Z,8.20
2019-05-03T13:56:20.368Z,8.40
2019-05-03T13:58:55.040Z,8.60
2019-05-03T14:01:27.442Z,8.60
2019-05-03T14:03:59.791Z,8.80
2019-05-03T14:06:35.987Z,8.50
2019-05-03T14:09:08.055Z,8.60
2019-05-03T14:11:40.842Z,8.90
2019-05-03T14:14:15.077Z,9.30
2019-05-03T14:16:47.778Z,9.30
2019-05-03T14:19:28.156Z,9.50
2019-05-03T14:22:02.510Z,9.70
2019-05-03T14:24:37.395Z,9.50
2019-05-03T14:27:10.383Z,9.70
2019-05-03T14:29:45.126Z,9.50
2019-05-03T14:32:25.651Z,9.40
2019-05-03T14:34:51.325Z,9.20
2019-05-03T14:37:23.811Z,9.10
2019-05-03T14:39:56.231Z,9.20
2019-05-03T14:42:29.133Z,9.30
2019-05-03T14:45:02.067Z,9.30
2019-05-03T14:47:35.431Z,9.30
2019-05-03T14:50:08.543Z,9.30
2019-05-03T14:52:41.221Z,9.40
2019-05-03T14:55:29.767Z,9.50
2019-05-03T14:58:20.679Z,9.40
2019-05-03T15:01:05.776Z,9.40
2019-05-03T15:03:38.515Z,9.40
2019-05-03T15:06:11.266Z,9.40
2019-05-03T15:08:43.699Z,9.50
2019-05-03T15:11:16.735Z,9.60
2019-05-03T15:13:50.068Z,9.60
2019-05-03T15:16:22.655Z,9.50
2019-05-03T15:18:54.987Z,9.50
2019-05-03T15:21:27.284Z,9.40
2019-05-03T15:23:59.886Z,9.60
2019-05-03T15:26:35.346Z,9.50
2019-05-03T15:29:08.060Z,9.50
2019-05-03T15:31:40.881Z,9.70
2019-05-03T15:34:15.211Z,9.70
2019-05-03T15:36:48.146Z,9.90
2019-05-03T15:39:20.443Z,9.80
2019-05-03T15:41:54.383Z,9.90
2019-05-03T15:44:51.002Z,9.90
2019-05-03T15:47:28.494Z,10.00
2019-05-03T15:50:01.178Z,9.80
2019-05-03T15:52:35.278Z,9.90
2019-05-03T15:55:08.515Z,10.00
2019-05-03T15:57:40.850Z,10.10
2019-05-03T16:00:15.108Z,10.10
2019-05-03T16:02:48.083Z,10.20
2019-05-03T16:05:20.949Z,10.20
2019-05-03T16:07:55.169Z,10.20
2019-05-03T16:10:27.425Z,10.20
2019-05-03T16:12:59.657Z,10.10
2019-05-03T16:15:32.232Z,10.10
2019-05-03T16:18:05.193Z,10.00
2019-05-03T16:20:39.425Z,10.00
2019-05-03T16:23:11.851Z,9.90
2019-05-03T16:25:44.892Z,9.90
2019-05-03T16:28:24.837Z,9.90
2019-05-03T16:31:08.086Z,9.80
2019-05-03T16:33:40.251Z,9.90
2019-05-03T16:36:14.745Z,9.90
2019-05-03T16:38:47.341Z,10.00
2019-05-03T16:41:19.874Z,10.00
2019-05-03T16:43:52.675Z,10.10
2019-05-03T16:46:26.109Z,10.10
2019-05-03T16:48:58.523Z,10.20
2019-05-03T16:51:31.190Z,10.20
2019-05-03T16:54:03.938Z,10.30
2019-05-03T16:56:37.019Z,10.40
2019-05-03T16:59:09.749Z,10.50
2019-05-03T17:01:44.411Z,10.70
2019-05-03T17:04:30.666Z,10.70
2019-05-03T17:07:20.346Z,10.70
2019-05-03T17:10:11.060Z,10.80
2019-05-03T17:12:45.318Z,10.90
2019-05-03T17:15:17.982Z,11.00
2019-05-03T17:17:50.378Z,11.00
2019-05-03T17:20:25.330Z,11.10
2019-05-03T17:22:57.205Z,11.10
2019-05-03T17:25:29.891Z,11.00
2019-05-03T17:28:02.367Z,11.10
2019-05-03T17:30:37.331Z,11.20
2019-05-03T17:33:09.041Z,11.20
2019-05-03T17:35:42.867Z,11.10
2019-05-03T17:38:15.927Z,11.00
2019-05-03T17:41:06.146Z,11.00
2019-05-03T17:43:48.657Z,10.90
2019-05-03T17:46:21.600Z,10.70
2019-05-03T17:48:54.749Z,10.70
2019-05-03T17:51:45.609Z,10.60
2019-05-03T17:54:35.744Z,10.70
2019-05-03T17:57:15.083Z,10.80
2019-05-03T17:59:52.350Z,10.90
2019-05-03T18:02:40.387Z,10.90
2019-05-03T18:05:20.547Z,10.90
2019-05-03T18:08:02.438Z,11.00
2019-05-03T18:10:35.839Z,10.90
2019-05-03T18:13:08.348Z,10.90
2019-05-03T18:15:41.391Z,11.00
2019-05-03T18:18:15.611Z,11.00
2019-05-03T18:20:48.165Z,11.10
2019-05-03T18:23:20.926Z,11.10
2019-05-03T18:25:54.854Z,11.00
2019-05-03T18:28:27.777Z,11.00
2019-05-03T18:31:02.179Z,11.00
2019-05-03T18:33:34.644Z,11.10
2019-05-03T18:36:07.454Z,11.10
2019-05-03T18:38:40.942Z,11.10
2019-05-03T18:41:14.028Z,11.20
2019-05-03T18:44:00.847Z,11.10
2019-05-03T18:46:47.656Z,11.10
2019-05-03T18:49:20.438Z,11.00
2019-05-03T18:51:55.164Z,10.90
2019-05-03T18:54:27.343Z,10.90
2019-05-03T18:56:59.895Z,10.90
2019-05-03T18:59:32.441Z,10.80
2019-05-03T19:02:05.546Z,10.80
2019-05-03T19:04:45.241Z,10.90
2019-05-03T19:07:39.511Z,10.90
2019-05-03T19:10:24.826Z,10.80
2019-05-03T19:13:26.430Z,10.80
2019-05-03T19:16:00.349Z,10.70
2019-05-03T19:18:35.255Z,10.70
2019-05-03T19:21:08.041Z,10.70
2019-05-03T19:23:41.026Z,10.70
2019-05-03T19:26:14.453Z,10.80
2019-05-03T19:28:47.196Z,10.80
2019-05-03T19:31:19.779Z,10.70
2019-05-03T19:33:52.386Z,10.70
2019-05-03T19:36:24.883Z,10.70
2019-05-03T19:38:58.226Z,10.60
2019-05-03T19:41:30.528Z,10.50
2019-05-03T19:44:04.311Z,10.50
2019-05-03T19:46:37.388Z,10.40
2019-05-03T19:49:09.613Z,10.40
2019-05-03T19:51:41.991Z,10.40
2019-05-03T19:54:14.823Z,10.40
2019-05-03T19:56:47.660Z,10.60
2019-05-03T19:59:37.317Z,10.60
2019-05-03T20:02:28.833Z,10.60
2019-05-03T20:05:19.849Z,10.50
2019-05-03T20:08:09.875Z,10.50
2019-05-03T20:10:42.579Z,10.60
2019-05-03T20:13:15.506Z,10.70
2019-05-03T20:15:48.487Z,10.80
2019-05-03T20:18:21.024Z,10.70
2019-05-03T20:20:55.202Z,10.70
2019-05-03T20:23:28.225Z,10.60
2019-05-03T20:26:01.155Z,10.50
2019-05-03T20:28:35.562Z,10.30
2019-05-03T20:31:08.108Z,10.20
2019-05-03T20:33:40.318Z,10.20
2019-05-03T20:36:13.468Z,10.10
2019-05-03T20:38:45.970Z,10.10
2019-05-03T20:41:18.559Z,10.20
2019-05-03T20:44:14.441Z,10.20
2019-05-03T20:47:00.262Z,10.20
2019-05-03T20:49:34.597Z,10.30
2019-05-03T20:52:07.149Z,10.20
2019-05-03T20:54:40.080Z,10.20
2019-05-03T20:57:14.494Z,10.30
2019-05-03T20:59:51.677Z,10.40
2019-05-03T21:02:23.218Z,10.40
2019-05-03T21:04:56.191Z,10.40
2019-05-03T21:07:29.059Z,10.40
2019-05-03T21:10:01.510Z,10.40
2019-05-03T21:12:34.676Z,10.40
2019-05-03T21:15:09.653Z,10.30
2019-05-03T21:18:00.753Z,10.40
2019-05-03T21:20:49.650Z,10.40
2019-05-03T21:23:24.916Z,10.40
2019-05-03T21:26:13.352Z,10.60
2019-05-03T21:28:45.431Z,10.80
2019-05-03T21:31:18.230Z,10.80
2019-05-03T21:33:51.447Z,10.80
2019-05-03T21:36:25.528Z,10.70
2019-05-03T21:38:58.414Z,10.50
2019-05-03T21:41:30.809Z,10.50
2019-05-03T21:44:04.818Z,10.50
2019-05-03T21:46:48.089Z,10.60
2019-05-03T21:49:28.855Z,10.70
2019-05-03T21:52:01.937Z,10.80
2019-05-03T21:54:34.686Z,10.80
2019-05-03T21:57:07.923Z,11.00
2019-05-03T21:59:41.275Z,11.00
2019-05-03T22:02:15.412Z,11.00
2019-05-03T22:04:48.271Z,10.80
2019-05-03T22:07:20.591Z,10.80
2019-05-03T22:09:54.482Z,10.70
2019-05-03T22:12:27.782Z,10.70
2019-05-03T22:15:22.070Z,10.70
2019-05-03T22:18:16.358Z,10.70
2019-05-03T22:21:16.789Z,10.70
2019-05-03T22:24:02.026Z,10.70
2019-05-03T22:26:51.434Z,10.80
2019-05-03T22:29:25.464Z,10.80
2019-05-03T22:31:58.607Z,10.80
2019-05-03T22:34:31.787Z,10.80
2019-05-03T22:37:04.315Z,10.80
2019-05-03T22:39:37.402Z,10.80
2019-05-03T22:42:10.176Z,10.80
2019-05-03T22:44:42.479Z,10.80
2019-05-03T22:47:14.939Z,10.80
2019-05-03T22:49:47.795Z,10.70
2019-05-03T22:52:20.488Z,10.70
2019-05-03T22:54:55.356Z,10.70
2019-05-03T22:57:27.967Z,10.70
2019-05-03T23:00:00.390Z,10.60
2019-05-03T23:02:35.078Z,10.50
2019-05-03T23:05:07.898Z,10.50
2019-05-03T23:07:40.503Z,10.50
2019-05-03T23:10:14.772Z,10.50
2019-05-03T23:17:51.583Z,10.40
2019-05-03T23:20:35.422Z,10.50
2019-05-03T23:23:11.442Z,10.40
2019-05-03T23:25:44.878Z,10.40
2019-05-03T23:28:17.561Z,10.40
2019-05-03T23:30:49.943Z,10.40
2019-05-03T23:33:25.153Z,10.40
2019-05-03T23:35:57.236Z,10.30
2019-05-03T23:38:29.618Z,10.40
2019-05-03T23:41:04.696Z,10.40
2019-05-03T23:43:37.228Z,10.30
2019-05-03T23:46:10.410Z,10.30
2019-05-03T23:48:44.678Z,10.30
2019-05-03T23:51:35.076Z,10.20
2019-05-03T23:54:08.118Z,10.20
2019-05-03T23:56:40.767Z,10.10
2019-05-03T23:59:14.865Z,10.10
